Terminal Aerodrome Forecast
Issued by NWS

Home | Current Version | Previous Version | Text Only | Print | Product List | Glossary On
Versions: 1 2 3 4 5 6 7 8 9 10 11 12 13 14 15 16 17
000
FTUS42 TJSJ 180545
TAFJPS
TAF
TJPS 180545Z 1806/1906 07005KT P6SM VCSH SCT030
     FM181500 13012G20KT P6SM -SHRA SCT030 BKN060
     FM182300 08006KT P6SM FEW030 FEW060=

USA.gov is the U.S. government's official web portal to all federal, state and local government web resources and services.